Auburndale, Florida
Current Conditions -  °F | °C
As of 8:53 PM on Monday 24 Nov 2014 (Local Time) from KGIF Reporting Station
Clear Clear  
Wind Chill: 74°   Ceiling: Unl
Heat Index: 74°   Visibility: 10mi
Dew Point: 70°   Wind: 7mph
Humidity: 87%   Direction: 200°SSW
Pressure: 30.01"   Gusts: NA
Location:  28.06°N, 81.78°W
Report Text: KGIF 250153Z AUTO 20006KT 10SM CLR 23/21 A3001 RMK AO2 SLP160 T02330211
Loading
Personal Weather Stations






























Interactive Weather Map New forecast layout! Learn more

10-Day Weather Forecast

Advertisements
Track Severe Weather on mobile